Pioneer Point, California
Current Conditions -  °F | °C
As of 2:56 PM on Monday 24 Nov 2014 (Local Time) from KNID Reporting Station
Broken Clouds Broken Clouds  
Wind Chill: 65°   Ceiling: 28000
Heat Index: 65°   Visibility: 10mi
Dew Point: 11°   Wind: 9mph
Humidity: 12%   Direction: 120°ESE
Pressure: 30.33"   Gusts: NA
Location:  35.6496°N, 117.375°W
Report Text: KNID 242256Z 12008KT 10SM BKN280 18/M12 A3033 RMK AO2 SLP274 T01831117 $
Loading
Personal Weather Stations






























Interactive Weather Map New forecast layout! Learn more

10-Day Weather Forecast

Advertisements
Track Severe Weather on mobile